createdAt,value
2019-06-26T00:00:17.007Z,2.30
2019-06-26T00:02:45.966Z,2.05
2019-06-26T00:05:14.742Z,1.95
2019-06-26T00:07:43.529Z,2.00
2019-06-26T00:10:12.765Z,2.37
2019-06-26T00:12:41.558Z,2.20
2019-06-26T00:15:10.375Z,2.08
2019-06-26T00:17:39.230Z,2.40
2019-06-26T00:20:08.351Z,2.80
2019-06-26T00:22:37.068Z,2.00
2019-06-26T00:25:09.948Z,2.55
2019-06-26T00:27:38.755Z,2.33
2019-06-26T00:30:08.796Z,2.37
2019-06-26T00:32:37.599Z,2.12
2019-06-26T00:35:06.957Z,1.77
2019-06-26T00:37:35.784Z,1.97
2019-06-26T00:40:06.805Z,1.98
2019-06-26T00:42:35.561Z,2.20
2019-06-26T00:45:06.297Z,2.27
2019-06-26T00:47:35.082Z,2.20
2019-06-26T00:50:05.404Z,2.35
2019-06-26T00:52:34.262Z,2.08
2019-06-26T00:55:03.064Z,2.27
2019-06-26T00:57:31.908Z,2.87
2019-06-26T01:00:02.395Z,2.02
2019-06-26T01:02:31.236Z,1.65
2019-06-26T01:05:02.519Z,2.00
2019-06-26T01:07:31.316Z,2.02
2019-06-26T01:10:00.098Z,2.58
2019-06-26T01:12:28.885Z,2.27
2019-06-26T01:14:57.685Z,2.65
2019-06-26T01:17:30.132Z,2.17
2019-06-26T01:19:58.974Z,2.45
2019-06-26T01:22:27.900Z,2.15
2019-06-26T01:24:56.850Z,2.22
2019-06-26T01:27:25.660Z,2.15
2019-06-26T01:29:56.080Z,2.17
2019-06-26T01:32:25.252Z,2.15
2019-06-26T01:34:54.054Z,1.90
2019-06-26T01:37:22.903Z,2.30
2019-06-26T01:39:51.638Z,2.50
2019-06-26T01:42:20.467Z,2.30
2019-06-26T01:44:49.558Z,2.87
2019-06-26T01:47:18.674Z,2.10
2019-06-26T01:49:47.484Z,2.62
2019-06-26T01:52:16.353Z,2.52
2019-06-26T01:54:45.153Z,2.27
2019-06-26T01:57:13.987Z,2.30
2019-06-26T01:59:43.127Z,2.00
2019-06-26T02:02:11.928Z,2.83
2019-06-26T02:04:41.305Z,2.08
2019-06-26T02:07:10.123Z,2.20
2019-06-26T02:09:38.919Z,2.42
2019-06-26T02:12:09.064Z,1.60
2019-06-26T02:14:37.878Z,1.60
2019-06-26T02:17:06.827Z,1.50
2019-06-26T02:19:35.863Z,2.08
2019-06-26T02:22:04.592Z,1.72
2019-06-26T02:24:33.403Z,1.90
2019-06-26T02:27:04.827Z,1.52
2019-06-26T02:29:33.678Z,1.90
2019-06-26T02:32:02.466Z,1.80
2019-06-26T02:34:31.260Z,1.95
2019-06-26T02:37:00.032Z,2.12
2019-06-26T02:39:28.765Z,2.00
2019-06-26T02:41:57.592Z,1.77
2019-06-26T02:44:26.408Z,2.65
2019-06-26T02:46:55.145Z,1.70
2019-06-26T02:49:23.899Z,1.72
2019-06-26T02:51:52.747Z,2.00
2019-06-26T02:54:21.479Z,2.05
2019-06-26T02:56:50.286Z,2.40
2019-06-26T02:59:19.107Z,2.30
2019-06-26T03:01:47.908Z,2.22
2019-06-26T03:04:16.766Z,2.42
2019-06-26T03:06:45.566Z,2.12
2019-06-26T03:09:14.367Z,2.15
2019-06-26T03:11:43.206Z,2.35
2019-06-26T03:14:12.012Z,1.75
2019-06-26T03:16:40.835Z,2.22
2019-06-26T03:19:09.639Z,2.20
2019-06-26T03:21:38.490Z,2.30
2019-06-26T03:24:07.279Z,2.40
2019-06-26T03:26:36.068Z,1.75
2019-06-26T03:29:04.992Z,1.80
2019-06-26T03:31:33.789Z,1.92
2019-06-26T03:34:02.642Z,2.25
2019-06-26T03:36:31.771Z,1.87
2019-06-26T03:39:00.568Z,1.75
2019-06-26T03:41:29.420Z,1.80
2019-06-26T03:43:58.223Z,1.75
2019-06-26T03:46:28.438Z,2.15
2019-06-26T03:48:57.222Z,2.45
2019-06-26T03:51:26.001Z,1.95
2019-06-26T03:53:54.847Z,2.30
2019-06-26T03:56:24.192Z,1.72
2019-06-26T03:58:53.030Z,1.90
2019-06-26T04:01:21.757Z,2.00
2019-06-26T04:03:50.631Z,1.90
2019-06-26T04:06:19.440Z,1.72
2019-06-26T04:08:48.236Z,1.77
2019-06-26T04:11:17.083Z,1.82
2019-06-26T04:13:46.219Z,2.10
2019-06-26T04:16:15.336Z,1.93
2019-06-26T04:18:44.174Z,1.72
2019-06-26T04:21:12.978Z,2.00
2019-06-26T04:23:41.785Z,2.05
2019-06-26T04:26:10.922Z,2.37
2019-06-26T04:28:39.976Z,2.20
2019-06-26T04:31:08.792Z,2.12
2019-06-26T04:33:37.664Z,2.15
2019-06-26T04:36:06.475Z,2.33
2019-06-26T04:38:35.270Z,2.75
2019-06-26T04:41:04.497Z,1.87
2019-06-26T04:43:33.239Z,1.98
2019-06-26T04:46:02.185Z,2.37
2019-06-26T04:48:31.011Z,1.98
2019-06-26T04:50:59.819Z,1.92
2019-06-26T04:53:30.516Z,1.77
2019-06-26T04:55:59.345Z,1.90
2019-06-26T04:58:28.499Z,1.65
2019-06-26T05:00:58.257Z,2.05
2019-06-26T05:03:27.089Z,1.87
2019-06-26T05:05:55.901Z,1.80
2019-06-26T05:08:24.746Z,1.82
2019-06-26T05:10:53.673Z,1.62
2019-06-26T05:13:22.692Z,1.95
2019-06-26T05:15:51.614Z,1.92
2019-06-26T05:18:20.440Z,2.12
2019-06-26T05:20:49.193Z,1.80
2019-06-26T05:23:18.028Z,2.00
2019-06-26T05:25:46.848Z,2.00
2019-06-26T05:28:15.665Z,1.65
2019-06-26T05:30:44.528Z,1.70
2019-06-26T05:33:13.331Z,1.90
2019-06-26T05:35:42.133Z,1.90
2019-06-26T05:38:10.963Z,1.80
2019-06-26T05:40:39.757Z,1.75
2019-06-26T05:43:08.923Z,1.87
2019-06-26T05:45:37.772Z,2.00
2019-06-26T05:48:07.981Z,1.85
2019-06-26T05:50:36.839Z,1.85
2019-06-26T05:53:05.652Z,2.10
2019-06-26T05:55:34.448Z,2.20
2019-06-26T05:58:03.289Z,1.98
2019-06-26T06:00:32.118Z,1.98
2019-06-26T06:03:01.266Z,2.22
2019-06-26T06:05:30.468Z,2.10
2019-06-26T06:07:59.265Z,2.02
2019-06-26T06:10:28.086Z,1.98
2019-06-26T06:12:56.919Z,2.08
2019-06-26T06:15:25.736Z,1.77
2019-06-26T06:17:54.580Z,1.95
2019-06-26T06:20:35.374Z,1.90
2019-06-26T06:23:06.186Z,2.15
2019-06-26T06:25:35.481Z,1.90
2019-06-26T06:28:04.427Z,1.92
2019-06-26T06:30:33.666Z,1.87
2019-06-26T06:33:02.623Z,1.80
2019-06-26T06:35:31.406Z,1.75
2019-06-26T06:38:00.262Z,1.90
2019-06-26T06:40:29.047Z,2.10
2019-06-26T06:43:02.094Z,2.00
2019-06-26T06:45:31.112Z,2.20
2019-06-26T06:48:01.647Z,1.85
2019-06-26T06:50:30.471Z,2.00
2019-06-26T06:52:59.207Z,2.12
2019-06-26T06:55:28.068Z,2.27
2019-06-26T06:57:56.907Z,2.12
2019-06-26T07:00:25.815Z,2.30
2019-06-26T07:02:56.682Z,2.10
2019-06-26T07:05:25.417Z,1.82
2019-06-26T07:07:54.590Z,1.85
2019-06-26T07:10:23.458Z,1.95
2019-06-26T07:12:55.442Z,2.00
2019-06-26T07:15:24.474Z,1.55
2019-06-26T07:17:54.114Z,1.90
2019-06-26T07:20:22.920Z,2.08
2019-06-26T07:22:51.802Z,1.90
2019-06-26T07:25:20.607Z,1.62
2019-06-26T07:27:49.417Z,1.62
2019-06-26T07:30:19.328Z,1.65
2019-06-26T07:32:48.498Z,1.65
2019-06-26T07:35:17.306Z,2.05
2019-06-26T07:37:46.124Z,1.50
2019-06-26T07:40:15.371Z,1.60
2019-06-26T07:42:44.472Z,2.12
2019-06-26T07:45:13.434Z,1.60
2019-06-26T07:47:44.057Z,1.95
2019-06-26T07:50:13.423Z,2.33
2019-06-26T07:52:42.405Z,1.70
2019-06-26T07:55:12.527Z,1.70
2019-06-26T07:57:41.483Z,1.75
2019-06-26T08:00:10.974Z,1.75
2019-06-26T08:02:39.816Z,1.80
2019-06-26T08:05:09.287Z,1.75
2019-06-26T08:07:38.180Z,2.00
2019-06-26T08:10:08.352Z,2.05
2019-06-26T08:12:37.168Z,2.08
2019-06-26T08:15:08.115Z,1.77
2019-06-26T08:17:38.468Z,2.08
2019-06-26T08:20:07.947Z,1.67
2019-06-26T08:22:36.798Z,2.00
2019-06-26T08:25:08.188Z,1.85
2019-06-26T08:27:37.246Z,1.65
2019-06-26T08:30:09.781Z,2.00
2019-06-26T08:32:38.964Z,1.80
2019-06-26T08:35:08.031Z,1.87
2019-06-26T08:37:36.798Z,2.05
2019-06-26T08:40:08.877Z,1.60
2019-06-26T08:42:37.662Z,1.80
2019-06-26T08:45:09.536Z,2.25
2019-06-26T08:47:38.406Z,1.47
2019-06-26T08:50:11.462Z,2.35
2019-06-26T08:52:40.330Z,1.80
2019-06-26T08:55:09.824Z,2.10
2019-06-26T08:57:38.702Z,1.98
2019-06-26T09:00:08.717Z,2.08
2019-06-26T09:02:37.907Z,2.20
2019-06-26T09:05:07.806Z,1.85
2019-06-26T09:07:36.671Z,2.17
2019-06-26T09:10:06.976Z,1.65
2019-06-26T09:12:35.734Z,1.82
2019-06-26T09:15:06.879Z,1.57
2019-06-26T09:17:36.221Z,1.70
2019-06-26T09:20:06.123Z,1.67
2019-06-26T09:22:35.364Z,1.57
2019-06-26T09:25:20.848Z,1.62
2019-06-26T09:27:36.785Z,1.90
2019-06-26T09:30:10.222Z,1.80
2019-06-26T09:32:39.324Z,1.70
2019-06-26T09:35:08.331Z,2.00
2019-06-26T09:37:37.123Z,1.77
2019-06-26T09:40:06.619Z,1.50
2019-06-26T09:42:35.482Z,1.57
2019-06-26T09:45:09.150Z,1.80
2019-06-26T09:47:38.004Z,1.60
2019-06-26T09:50:07.761Z,1.72
2019-06-26T09:52:36.598Z,1.67
2019-06-26T09:55:06.946Z,1.95
2019-06-26T09:57:36.691Z,1.90
2019-06-26T10:00:08.583Z,1.62
2019-06-26T10:02:37.492Z,2.30
2019-06-26T10:05:07.708Z,1.60
2019-06-26T10:07:36.563Z,1.60
2019-06-26T10:10:05.902Z,1.85
2019-06-26T10:12:34.680Z,1.82
2019-06-26T10:15:03.820Z,1.50
2019-06-26T10:17:32.593Z,1.72
2019-06-26T10:20:01.837Z,1.65
2019-06-26T10:22:30.647Z,1.35
2019-06-26T10:24:59.475Z,1.50
2019-06-26T10:27:28.522Z,1.50
2019-06-26T10:29:57.423Z,1.70
2019-06-26T10:32:26.218Z,1.70
2019-06-26T10:34:55.089Z,1.67
2019-06-26T10:37:23.895Z,1.67
2019-06-26T10:39:52.697Z,1.67
2019-06-26T10:42:21.611Z,1.92
2019-06-26T10:44:50.352Z,1.75
2019-06-26T10:47:19.149Z,1.85
2019-06-26T10:49:47.974Z,1.60
2019-06-26T10:52:16.813Z,1.70
2019-06-26T10:54:45.992Z,1.80
2019-06-26T10:57:15.188Z,1.40
2019-06-26T10:59:43.990Z,1.32
2019-06-26T11:02:16.730Z,1.75
2019-06-26T11:04:43.439Z,1.42
2019-06-26T11:07:12.302Z,1.42
2019-06-26T11:09:41.090Z,1.40
2019-06-26T11:12:09.883Z,1.25
2019-06-26T11:14:38.683Z,1.50
2019-06-26T11:17:09.086Z,1.27
2019-06-26T11:19:43.644Z,1.30
2019-06-26T11:22:08.293Z,1.40
2019-06-26T11:24:40.157Z,1.62
2019-06-26T11:27:09.070Z,1.30
2019-06-26T11:29:38.232Z,1.60
2019-06-26T11:32:09.452Z,1.40
2019-06-26T11:34:37.568Z,1.60
2019-06-26T11:37:06.392Z,1.50
2019-06-26T11:39:35.211Z,1.52
2019-06-26T11:42:04.141Z,1.20
2019-06-26T11:44:32.986Z,1.65
2019-06-26T11:47:01.792Z,1.50
2019-06-26T11:49:30.691Z,1.72
2019-06-26T11:51:59.506Z,1.35
2019-06-26T11:54:28.307Z,1.50
2019-06-26T11:56:57.133Z,1.60
2019-06-26T11:59:25.928Z,1.20
2019-06-26T12:01:54.737Z,1.32
2019-06-26T12:04:23.644Z,1.55
2019-06-26T12:06:54.464Z,1.30
2019-06-26T12:09:22.999Z,1.72
2019-06-26T12:11:51.873Z,1.50
2019-06-26T12:14:20.702Z,1.57
2019-06-26T12:16:49.496Z,1.30
2019-06-26T12:19:22.336Z,1.42
2019-06-26T12:21:48.787Z,1.27
2019-06-26T12:24:17.568Z,1.40
2019-06-26T12:26:46.787Z,1.42
2019-06-26T12:29:16.558Z,1.57
2019-06-26T12:31:45.307Z,1.45
2019-06-26T12:34:14.173Z,1.55
2019-06-26T12:36:42.974Z,1.40
2019-06-26T12:39:11.765Z,1.82
2019-06-26T12:41:40.619Z,1.60
2019-06-26T12:44:09.429Z,2.20
2019-06-26T12:46:39.814Z,1.70
2019-06-26T12:49:08.656Z,1.52
2019-06-26T12:51:37.528Z,2.20
2019-06-26T12:54:06.417Z,1.50
2019-06-26T12:56:37.954Z,1.60
2019-06-26T12:59:07.059Z,1.65
2019-06-26T13:01:36.151Z,1.55
2019-06-26T13:04:05.980Z,1.47
2019-06-26T13:06:34.751Z,1.40
2019-06-26T13:09:04.715Z,1.77
2019-06-26T13:11:33.500Z,1.70
2019-06-26T13:14:03.273Z,1.70
2019-06-26T13:16:32.341Z,1.30
2019-06-26T13:19:01.596Z,1.30
2019-06-26T13:21:30.402Z,1.65
2019-06-26T13:23:59.257Z,1.50
2019-06-26T13:26:28.122Z,1.60
2019-06-26T13:28:56.942Z,1.65
2019-06-26T13:31:25.688Z,1.32
2019-06-26T13:33:54.518Z,1.90
2019-06-26T13:36:23.353Z,1.70
2019-06-26T13:38:54.409Z,1.92
2019-06-26T13:41:23.153Z,1.50
2019-06-26T13:43:51.996Z,1.52
2019-06-26T13:46:21.193Z,1.85
2019-06-26T13:48:49.996Z,1.47
2019-06-26T13:51:21.486Z,1.55
2019-06-26T13:53:49.599Z,1.77
2019-06-26T13:56:18.713Z,1.85
2019-06-26T13:58:47.495Z,1.70
2019-06-26T14:01:16.355Z,1.37
2019-06-26T14:03:45.244Z,1.72
2019-06-26T14:06:14.040Z,1.50
2019-06-26T14:08:42.878Z,1.50
2019-06-26T14:11:11.699Z,1.55
2019-06-26T14:13:41.947Z,1.60
2019-06-26T14:16:10.910Z,1.45
2019-06-26T14:18:39.718Z,1.27
2019-06-26T14:21:21.540Z,1.50
2019-06-26T14:23:39.460Z,1.45
2019-06-26T14:26:08.251Z,1.50
2019-06-26T14:28:37.100Z,1.47
2019-06-26T14:31:05.905Z,1.50
2019-06-26T14:33:34.709Z,1.52
2019-06-26T14:36:03.579Z,1.32
2019-06-26T14:38:33.939Z,1.60
2019-06-26T14:41:03.177Z,1.42
2019-06-26T14:43:33.433Z,1.60
2019-06-26T14:46:02.322Z,1.60
2019-06-26T14:48:31.085Z,1.60
2019-06-26T14:51:02.548Z,1.22
2019-06-26T14:53:31.339Z,1.62
2019-06-26T14:56:02.732Z,1.50
2019-06-26T14:58:31.594Z,1.47
2019-06-26T15:01:00.450Z,1.50
2019-06-26T15:03:29.259Z,1.65
2019-06-26T15:06:12.262Z,1.40
2019-06-26T15:08:29.873Z,1.62
2019-06-26T15:10:58.610Z,1.62
2019-06-26T15:13:29.027Z,1.47
2019-06-26T15:15:59.520Z,1.60
2019-06-26T15:18:29.565Z,1.62
2019-06-26T15:20:58.431Z,1.40
2019-06-26T15:23:29.946Z,1.77
2019-06-26T15:25:58.797Z,1.80
2019-06-26T15:28:27.576Z,1.55
2019-06-26T15:30:56.355Z,1.30
2019-06-26T15:33:25.199Z,1.27
2019-06-26T15:35:54.153Z,1.60
2019-06-26T15:38:22.966Z,1.62
2019-06-26T15:40:51.766Z,1.70
2019-06-26T15:43:20.618Z,1.90
2019-06-26T15:45:49.429Z,1.40
2019-06-26T15:48:18.583Z,1.60
2019-06-26T15:50:47.430Z,2.50
2019-06-26T15:53:16.266Z,1.30
2019-06-26T15:55:46.083Z,1.35
2019-06-26T15:58:15.069Z,1.47
2019-06-26T16:00:44.374Z,1.40
2019-06-26T16:03:13.272Z,1.40
2019-06-26T16:05:44.660Z,1.55
2019-06-26T16:08:13.473Z,1.50
2019-06-26T16:10:42.716Z,1.40
2019-06-26T16:13:11.560Z,1.70
2019-06-26T16:15:40.396Z,1.72
2019-06-26T16:18:10.843Z,1.40
2019-06-26T16:20:39.700Z,1.57
2019-06-26T16:23:08.770Z,1.10
2019-06-26T16:25:37.568Z,1.22
2019-06-26T16:28:06.763Z,1.40
2019-06-26T16:30:35.507Z,1.45
2019-06-26T16:33:04.344Z,1.50
2019-06-26T16:35:33.162Z,1.62
2019-06-26T16:38:04.448Z,1.70
2019-06-26T16:40:33.568Z,1.37
2019-06-26T16:43:02.380Z,1.30
2019-06-26T16:45:31.251Z,1.50
2019-06-26T16:48:00.050Z,1.40
2019-06-26T16:50:28.861Z,1.10
2019-06-26T16:52:57.689Z,1.50
2019-06-26T16:55:26.510Z,1.20
2019-06-26T16:57:55.692Z,1.22
2019-06-26T17:00:24.547Z,1.52
2019-06-26T17:02:53.335Z,1.22
2019-06-26T17:05:24.156Z,1.22
2019-06-26T17:07:52.631Z,1.30
2019-06-26T17:10:22.145Z,1.45
2019-06-26T17:12:50.979Z,1.45
2019-06-26T17:15:19.914Z,1.35
2019-06-26T17:17:49.953Z,1.20
2019-06-26T17:20:18.915Z,1.17
2019-06-26T17:23:01.089Z,1.17
2019-06-26T17:25:18.282Z,1.20
2019-06-26T17:27:47.115Z,1.02
2019-06-26T17:30:16.479Z,1.20
2019-06-26T17:32:45.290Z,1.32
2019-06-26T17:35:14.349Z,1.20
2019-06-26T17:37:44.717Z,1.30
2019-06-26T17:40:13.974Z,1.60
2019-06-26T17:42:44.116Z,1.40
2019-06-26T17:45:13.757Z,1.57
2019-06-26T17:47:42.545Z,1.57
2019-06-26T17:50:11.889Z,1.67
2019-06-26T17:52:40.754Z,1.70
2019-06-26T17:55:11.112Z,1.62
2019-06-26T17:57:39.915Z,1.80
2019-06-26T18:00:12.317Z,1.60
2019-06-26T18:02:42.722Z,1.45
2019-06-26T18:05:12.779Z,1.80
2019-06-26T18:07:41.597Z,1.45
2019-06-26T18:10:10.391Z,1.65
2019-06-26T18:12:39.233Z,1.60
2019-06-26T18:15:08.286Z,1.60
2019-06-26T18:17:37.024Z,1.80
2019-06-26T18:20:07.833Z,2.05
2019-06-26T18:22:36.851Z,2.22
2019-06-26T18:25:07.082Z,1.40
2019-06-26T18:27:35.878Z,1.55
2019-06-26T18:30:06.963Z,2.00
2019-06-26T18:32:35.793Z,1.55
2019-06-26T18:35:06.594Z,1.70
2019-06-26T18:37:35.462Z,1.75
2019-06-26T18:40:05.759Z,1.50
2019-06-26T18:42:35.529Z,1.70
2019-06-26T18:45:05.775Z,1.52
2019-06-26T18:47:34.621Z,1.67
2019-06-26T18:50:05.029Z,1.90
2019-06-26T18:52:33.839Z,1.60
2019-06-26T18:55:02.674Z,1.90
2019-06-26T18:57:31.479Z,1.42
2019-06-26T19:00:00.328Z,1.25
2019-06-26T19:02:29.470Z,1.32
2019-06-26T19:04:58.301Z,1.20
2019-06-26T19:07:27.485Z,1.40
2019-06-26T19:09:56.850Z,1.45
2019-06-26T19:12:25.643Z,1.50
2019-06-26T19:14:54.497Z,1.50
2019-06-26T19:17:23.299Z,1.45
2019-06-26T19:19:52.156Z,1.50
2019-06-26T19:22:20.882Z,1.67
2019-06-26T19:24:49.693Z,1.37
2019-06-26T19:27:18.522Z,1.17
2019-06-26T19:29:47.372Z,1.60
2019-06-26T19:32:16.219Z,1.45
2019-06-26T19:34:45.030Z,1.50
2019-06-26T19:37:13.879Z,1.70
2019-06-26T19:39:42.686Z,1.55
2019-06-26T19:42:11.906Z,1.67
2019-06-26T19:44:41.003Z,1.70
2019-06-26T19:47:09.805Z,1.50
2019-06-26T19:49:38.575Z,1.30
2019-06-26T19:52:07.453Z,1.60
2019-06-26T19:54:36.304Z,1.32
2019-06-26T19:57:06.868Z,1.57
2019-06-26T19:59:35.976Z,1.62
2019-06-26T20:02:05.380Z,1.70
2019-06-26T20:04:34.223Z,1.77
2019-06-26T20:07:03.035Z,2.12
2019-06-26T20:09:31.864Z,2.00
2019-06-26T20:12:00.665Z,1.77
2019-06-26T20:14:29.477Z,2.50
2019-06-26T20:16:58.721Z,1.92
2019-06-26T20:19:27.656Z,2.02
2019-06-26T20:21:56.510Z,2.47
2019-06-26T20:24:25.322Z,2.90
2019-06-26T20:26:54.470Z,2.00
2019-06-26T20:29:23.574Z,2.35
2019-06-26T20:31:52.372Z,2.20
2019-06-26T20:34:21.576Z,1.92
2019-06-26T20:36:50.361Z,2.00
2019-06-26T20:39:19.212Z,2.33
2019-06-26T20:41:48.076Z,2.25
2019-06-26T20:44:16.878Z,1.70
2019-06-26T20:46:45.999Z,1.70
2019-06-26T20:49:15.089Z,2.45
2019-06-26T20:51:43.940Z,2.00
2019-06-26T20:54:12.681Z,2.47
2019-06-26T20:56:41.518Z,2.42
2019-06-26T20:59:10.428Z,2.22
2019-06-26T21:01:39.328Z,2.50
2019-06-26T21:04:08.165Z,3.08
2019-06-26T21:06:37.005Z,2.85
2019-06-26T21:09:06.325Z,2.70
2019-06-26T21:11:35.142Z,2.80
2019-06-26T21:14:03.986Z,3.05
2019-06-26T21:16:33.555Z,3.20
2019-06-26T21:19:02.393Z,3.55
2019-06-26T21:21:31.195Z,3.60
2019-06-26T21:24:00.361Z,3.17
2019-06-26T21:26:29.190Z,3.35
2019-06-26T21:29:00.778Z,2.30
2019-06-26T21:31:28.796Z,2.60
2019-06-26T21:33:57.540Z,2.33
2019-06-26T21:36:26.383Z,2.80
2019-06-26T21:38:55.195Z,2.00
2019-06-26T21:41:24.002Z,2.70
2019-06-26T21:43:52.849Z,2.50
2019-06-26T21:46:21.788Z,2.65
2019-06-26T21:48:50.997Z,2.47
2019-06-26T21:51:21.511Z,2.65
2019-06-26T21:53:51.640Z,2.20
2019-06-26T21:56:21.754Z,2.58
2019-06-26T21:58:50.955Z,2.90
2019-06-26T22:01:20.152Z,2.77
2019-06-26T22:03:49.046Z,2.20
2019-06-26T22:06:18.771Z,2.87
2019-06-26T22:08:49.151Z,3.37
2019-06-26T22:11:17.972Z,3.45
2019-06-26T22:13:47.179Z,3.58
2019-06-26T22:16:15.988Z,3.70
2019-06-26T22:18:45.159Z,4.12
2019-06-26T22:21:14.129Z,3.12
2019-06-26T22:23:45.532Z,3.17
2019-06-26T22:26:14.565Z,3.87
2019-06-26T22:28:43.608Z,3.70
2019-06-26T22:31:12.592Z,3.70
2019-06-26T22:33:41.348Z,3.70
2019-06-26T22:36:10.122Z,3.67
2019-06-26T22:38:38.930Z,3.87
2019-06-26T22:41:07.843Z,3.30
2019-06-26T22:43:36.600Z,3.90
2019-06-26T22:46:05.661Z,3.77
2019-06-26T22:48:34.510Z,4.03
2019-06-26T22:51:03.348Z,3.75
2019-06-26T22:53:32.184Z,4.08
2019-06-26T22:56:07.521Z,3.52
2019-06-26T22:58:31.600Z,3.60
2019-06-26T23:01:03.201Z,4.70
2019-06-26T23:03:32.437Z,3.45
2019-06-26T23:06:01.294Z,4.20
2019-06-26T23:08:30.189Z,3.67
2019-06-26T23:10:58.987Z,3.52
2019-06-26T23:13:27.825Z,3.20
2019-06-26T23:15:56.664Z,3.33
2019-06-26T23:18:25.472Z,3.47
2019-06-26T23:20:54.333Z,3.70
2019-06-26T23:23:23.139Z,3.75
2019-06-26T23:25:51.950Z,3.27
2019-06-26T23:28:20.801Z,3.85
2019-06-26T23:30:49.618Z,3.90
2019-06-26T23:33:18.429Z,3.25
2019-06-26T23:35:47.184Z,3.20
2019-06-26T23:38:16.003Z,3.05
2019-06-26T23:40:47.175Z,3.42
2019-06-26T23:43:18.017Z,3.60
2019-06-26T23:45:46.960Z,3.02
2019-06-26T23:48:18.515Z,3.47
2019-06-26T23:50:47.391Z,3.62
2019-06-26T23:53:16.248Z,3.20
2019-06-26T23:55:45.070Z,2.37
2019-06-26T23:58:13.827Z,3.22
